Mackinac Island, MI

9:56 PM EDT on August 31, 2016 (GMT -0400)
Mackinac Island

Weather History for KMCD - November, 2013

Change the Weather History Date:

Saturday, November 30, 2013

  Actual Average Record
Temperature  
Mean Temperature 31 °F -  
Max Temperature 35 °F 35 °F 60 °F (1998)
Min Temperature 27 °F 27 °F 6 °F (1986)
Degree Days  
Heating Degree Days 34    
Moisture  
Dew Point 27 °F    
Average Humidity 83    
Maximum Humidity 99    
Minimum Humidity 70    
Precipitation  
Precipitation 0.01 in - - ()
Sea Level Pressure  
Sea Level Pressure 30.14 in    
Wind  
Wind Speed 10 mph (South)    
Max Wind Speed 17 mph    
Max Gust Speed 29 mph    
Visibility 7 miles    
Events Snow    
Averages and records for this station are not official NWS values.
T = Trace of Precipitation, MM = Missing Value Source: NWS Daily Summary

Daily Weather History Graph

Daily Weather History Graph

Search for Another Location

Airport or City:

Trip Planner

Search our weather history database for the weather conditions in past years. The results will help you decide how hot, cold, wet, or windy it might be!

Date:

Astronomy

Nov. 30, 2013 Rise Set
Actual Time 7:58 AM EST 4:55 PM EST
Civil Twilight 7:24 AM EST 5:29 PM EST
Nautical Twilight 6:47 AM EST 6:06 PM EST
Astronomical Twilight 6:11 AM EST 6:42 PM EST
Moon 5:01 AM EST (11/30) 3:25 PM EST (11/30)
Length of Visible Light 10h 04m
Length of Day
8h 57m
Waning Crescent, 7% of the Moon is Illuminated
Nov 30
Waning Crescent
Dec 2
New
Dec 9
First Quarter
Dec 17
Full
Dec 25
Last Quarter

Hourly Weather History & Observations

Time (EST) Temp. Windchill Dew Point Humidity Pressure Visibility Wind Dir Wind Speed Gust Speed Precip Events Conditions
12:15 AM 28.9 °F 19.2 °F 21.0 °F 72% 30.43 in 10.0 mi South 11.5 mph 16.1 mph N/A   Mostly Cloudy
12:34 AM 28.9 °F 20.4 °F 20.1 °F 70% 30.42 in 10.0 mi South 9.2 mph 17.3 mph N/A   Scattered Clouds
12:55 AM 28.4 °F 17.5 °F 19.8 °F 70% 30.42 in 10.0 mi SSE 13.8 mph 19.6 mph N/A   Mostly Cloudy
1:14 AM 28.0 °F 18.1 °F 19.4 °F 70% 30.41 in 10.0 mi SSE 11.5 mph 18.4 mph N/A   Overcast
1:35 AM 27.7 °F 17.6 °F 19.2 °F 71% 30.40 in 10.0 mi South 11.5 mph 18.4 mph N/A   Overcast
1:55 AM 27.9 °F 18.4 °F 19.8 °F 72% 30.40 in 10.0 mi SSE 10.4 mph 20.7 mph N/A   Overcast
2:15 AM 27.9 °F 15.9 °F 19.8 °F 72% 30.40 in 10.0 mi South 16.1 mph 23.0 mph N/A   Overcast
2:35 AM 27.9 °F 18.4 °F 19.8 °F 72% 30.39 in 10.0 mi South 10.4 mph 24.2 mph N/A   Overcast
2:54 AM 27.5 °F 16.8 °F 20.1 °F 74% 30.37 in 10.0 mi SSE 12.7 mph 25.3 mph N/A   Overcast
3:15 AM 27.5 °F 17.4 °F 20.3 °F 74% 30.36 in 10.0 mi SSE 11.5 mph 27.6 mph N/A   Overcast
3:34 AM 27.7 °F 16.6 °F 20.3 °F 74% 30.34 in 10.0 mi South 13.8 mph 26.5 mph N/A   Overcast
3:55 AM 27.9 °F 15.9 °F 20.3 °F 73% 30.33 in 10.0 mi South 16.1 mph 28.8 mph N/A   Overcast
4:15 AM 27.7 °F 16.6 °F 20.3 °F 74% 30.32 in 10.0 mi South 13.8 mph 24.2 mph N/A   Overcast
4:34 AM 28.0 °F 16.1 °F 20.8 °F 74% 30.31 in 10.0 mi South 16.1 mph 28.8 mph N/A   Overcast
4:55 AM 28.2 °F 16.3 °F 20.8 °F 74% 30.30 in 10.0 mi SSE 16.1 mph 25.3 mph N/A   Overcast
5:15 AM 28.2 °F 16.3 °F 20.8 °F 74% 30.27 in 10.0 mi South 16.1 mph 26.5 mph N/A   Overcast
5:34 AM 28.4 °F 16.2 °F 21.2 °F 74% 30.26 in 10.0 mi SSE 17.3 mph 26.5 mph N/A   Overcast
5:55 AM 28.4 °F 18.0 °F 21.0 °F 74% 30.25 in 10.0 mi South 12.7 mph 25.3 mph N/A   Overcast
6:15 AM 28.6 °F 17.7 °F 21.2 °F 74% 30.24 in 10.0 mi South 13.8 mph 27.6 mph N/A   Overcast
6:35 AM 28.9 °F 16.9 °F 21.7 °F 74% 30.23 in 10.0 mi South 17.3 mph 26.5 mph N/A   Overcast
6:55 AM 29.1 °F 17.9 °F 21.9 °F 74% 30.21 in 10.0 mi South 15.0 mph 25.3 mph N/A   Overcast
7:14 AM 29.3 °F 19.1 °F 22.1 °F 75% 30.20 in 10.0 mi South 12.7 mph 25.3 mph N/A   Overcast
7:35 AM 29.3 °F 19.6 °F 22.5 °F 76% 30.19 in 10.0 mi South 11.5 mph 27.6 mph N/A   Overcast
7:54 AM 29.8 °F 19.8 °F 22.8 °F 75% 30.19 in 10.0 mi South 12.7 mph 23.0 mph N/A   Overcast
8:15 AM 30.0 °F 20.0 °F 23.0 °F 75% 30.18 in 10.0 mi South 12.7 mph 23.0 mph N/A   Scattered Clouds
8:35 AM 30.2 °F 19.3 °F 23.0 °F 75% 30.18 in 10.0 mi South 15.0 mph 23.0 mph N/A   Mostly Cloudy
8:54 AM 30.2 °F 19.3 °F 23.4 °F 76% 30.17 in 10.0 mi South 15.0 mph 21.9 mph N/A   Overcast
9:15 AM 30.6 °F 19.8 °F 23.7 °F 76% 30.16 in 10.0 mi South 15.0 mph 21.9 mph N/A   Overcast
9:35 AM 30.7 °F 21.4 °F 23.9 °F 76% 30.15 in 10.0 mi South 11.5 mph 23.0 mph N/A   Overcast
9:54 AM 30.9 °F 21.7 °F 23.9 °F 75% 30.15 in 10.0 mi South 11.5 mph 23.0 mph N/A   Overcast
10:15 AM 31.1 °F 23.1 °F 24.6 °F 77% 30.13 in 10.0 mi South 9.2 mph 18.4 mph N/A   Overcast
10:35 AM 31.8 °F 22.3 °F 25.3 °F 77% 30.12 in 10.0 mi South 12.7 mph 19.6 mph N/A   Overcast
10:54 AM 32.0 °F 22.5 °F 25.7 °F 78% 30.11 in 10.0 mi South 12.7 mph 19.6 mph N/A   Overcast
11:15 AM 32.4 °F 23.0 °F 25.7 °F 76% 30.10 in 10.0 mi SSW 12.7 mph 19.6 mph N/A   Overcast
11:34 AM 32.9 °F 24.7 °F 26.1 °F 76% 30.09 in 10.0 mi SSW 10.4 mph 19.6 mph N/A   Overcast
11:55 AM 33.1 °F 25.5 °F 26.4 °F 77% 30.08 in 10.0 mi SSW 9.2 mph 20.7 mph N/A   Overcast
12:15 PM 33.3 °F 25.1 °F 26.6 °F 77% 30.08 in 10.0 mi SSW 10.4 mph - N/A   Overcast
12:34 PM 33.8 °F 26.4 °F 27.1 °F 77% 30.06 in 10.0 mi SSW 9.2 mph - N/A   Overcast
12:55 PM 34.0 °F 26.6 °F 27.5 °F 77% 30.05 in 10.0 mi SSW 9.2 mph - N/A   Overcast
1:15 PM 34.7 °F 27.5 °F 28.4 °F 78% 30.04 in 7.0 mi SSW 9.2 mph - N/A   Overcast
1:34 PM 35.1 °F 26.4 °F 29.3 °F 80% 30.03 in 10.0 mi SSW 12.7 mph 17.3 mph N/A   Overcast
1:55 PM 35.2 °F 28.1 °F 29.3 °F 79% 30.02 in 7.0 mi SSW 9.2 mph 17.3 mph N/A   Overcast
2:15 PM 35.1 °F 26.4 °F 30.0 °F 82% 30.02 in 5.0 mi SSW 12.7 mph 18.4 mph N/A Snow Light Snow
2:34 PM 35.1 °F 27.9 °F 30.2 °F 82% 30.01 in 5.0 mi South 9.2 mph 17.3 mph N/A Snow Light Snow
2:55 PM 35.2 °F 27.6 °F 30.6 °F 83% 30.00 in 5.0 mi SSW 10.4 mph 17.3 mph N/A Snow Light Snow
3:15 PM 35.2 °F 28.8 °F 30.9 °F 84% 30.00 in 5.0 mi SSW 8.1 mph 17.3 mph N/A Snow Light Snow
3:34 PM 34.9 °F 28.3 °F 31.8 °F 89% 30.01 in 3.0 mi West 8.1 mph - N/A Snow Light Snow
3:55 PM 33.3 °F 28.9 °F 32.0 °F 95% 30.01 in 1.0 mi NW 4.6 mph - N/A Snow Light Snow
4:15 PM 32.9 °F - 32.0 °F 96% 30.01 in 1.2 mi Calm Calm - 0.01 in Snow Light Snow
4:34 PM 32.9 °F 28.5 °F 32.0 °F 96% 30.01 in 1.5 mi NNW 4.6 mph - 0.01 in Snow Light Snow
4:55 PM 32.9 °F - 32.0 °F 96% 30.02 in 2.5 mi Calm Calm - 0.01 in   Overcast
5:15 PM 32.7 °F 29.6 °F 32.0 °F 97% 30.02 in 2.5 mi NNW 3.5 mph - N/A   Overcast
5:34 PM 32.9 °F - 32.2 °F 97% 30.01 in 2.5 mi Calm Calm - N/A   Overcast
5:55 PM 32.9 °F - 32.2 °F 97% 30.02 in 2.0 mi Calm Calm - N/A   Overcast
6:15 PM 32.5 °F - 32.0 °F 98% 30.02 in 2.0 mi Calm Calm - N/A   Overcast
6:34 PM 32.5 °F 29.3 °F 32.2 °F 99% 30.02 in 2.0 mi NNW 3.5 mph - N/A   Overcast
6:55 PM 32.7 °F 29.6 °F 32.2 °F 98% 30.03 in 4.0 mi North 3.5 mph - N/A   Overcast
7:15 PM 32.5 °F - 32.0 °F 98% 30.03 in 4.0 mi Calm Calm - N/A   Overcast
7:34 PM 32.9 °F 28.5 °F 32.0 °F 96% 30.03 in 4.0 mi NNE 4.6 mph - N/A   Overcast
7:55 PM 32.5 °F 28.1 °F 32.0 °F 98% 30.04 in 5.0 mi North 4.6 mph - N/A   Overcast
8:14 PM 32.5 °F 29.3 °F 32.0 °F 98% 30.04 in 5.0 mi North 3.5 mph - N/A   Overcast
8:35 PM 32.4 °F 27.9 °F 32.0 °F 99% 30.03 in 4.0 mi North 4.6 mph - N/A   Overcast
8:54 PM 32.4 °F 29.1 °F 32.0 °F 99% 30.03 in 4.0 mi North 3.5 mph - N/A   Overcast
9:15 PM 32.2 °F 28.9 °F 31.8 °F 99% 30.03 in 4.0 mi North 3.5 mph - N/A   Overcast
9:35 PM 32.2 °F 28.9 °F 31.6 °F 98% 30.03 in 4.0 mi North 3.5 mph - N/A   Overcast
9:54 PM 32.2 °F 28.9 °F 31.6 °F 98% 30.03 in 3.0 mi North 3.5 mph - N/A   Overcast
10:15 PM 32.0 °F 28.7 °F 31.6 °F 99% 30.03 in 3.0 mi North 3.5 mph - N/A   Overcast
10:35 PM 32.2 °F - 31.8 °F 99% 30.03 in 3.0 mi Calm Calm - N/A   Overcast
10:54 PM 32.0 °F 28.7 °F 31.8 °F 99% 30.03 in 2.5 mi North 3.5 mph - N/A   Overcast
11:15 PM 32.0 °F 28.7 °F 31.8 °F 99% 30.03 in 3.0 mi North 3.5 mph - N/A   Overcast
11:35 PM 32.2 °F 27.7 °F 32.0 °F 99% 30.04 in 4.0 mi North 4.6 mph - N/A   Overcast
11:54 PM 32.2 °F 28.9 °F 31.8 °F 99% 30.04 in 3.0 mi North 3.5 mph - N/A   Overcast